Latest Weather Observations for Hay Point

IDQ60801

Issued at 4:32 pm EST Saturday 13 February 2016 (issued every 30 minutes, with the page automatically refreshed every 10 minutes)

About weather observations | Map of weather stations | Latest weather observations for QLD | Other Formats
Station Details ID: 033317 Name: HAY POINT Lat: -21.29 Lon: 149.30 Height: 7.0 m
Data from the previous 72 hours. | See also: Recent months for locations in Queensland
Date/Time
EST
Temp
°C
App
Temp
°C
Dew
Point
Rel
Hum
%
Delta-T
°C
Wind Press
QNH
hPa
Press
MSL
hPa
Rain
since 9 am
mm
Dir
 
Spd
km/h
Gust
km/h
Spd
kts
Gust
kts
13/04:30pm - - - - - SE 22 28 12 15 - - -
13/04:00pm - - - - - SE 24 33 13 18 - - -
13/03:30pm - - - - - SE 24 30 13 16 - - -
13/03:00pm - - - - - SE 24 30 13 16 - - -
13/02:30pm - - - - - ESE 30 33 16 18 - - -
13/02:00pm - - - - - ESE 32 35 17 19 - - -
13/01:30pm - - - - - ESE 32 35 17 19 - - -
13/01:00pm - - - - - ESE 32 35 17 19 - - -
13/12:30pm - - - - - SE 26 33 14 18 - - -
13/12:00pm - - - - - SE 28 37 15 20 - - -
13/11:30am - - - - - SSE 32 37 17 20 - - -
13/11:00am - - - - - SSE 30 35 16 19 - - -
13/10:30am - - - - - SSE 32 35 17 19 - - -
13/10:00am - - - - - SSE 28 35 15 19 - - -
13/09:30am - - - - - SSE 28 37 15 20 - - -
13/09:00am - - - - - SSE 32 41 17 22 - - -
13/08:30am - - - - - S 28 37 15 20 - - -
13/08:00am - - - - - S 30 39 16 21 - - -
13/07:30am - - - - - S 28 35 15 19 - - -
13/07:00am - - - - - S 24 32 13 17 - - -
13/06:30am - - - - - S 24 30 13 16 - - -
13/06:00am - - - - - SSW 13 17 7 9 - - -
13/05:30am - - - - - SSW 17 19 9 10 - - -
13/05:00am - - - - - SSW 19 24 10 13 - - -
13/04:30am - - - - - S 20 28 11 15 - - -
13/04:00am - - - - - S 24 30 13 16 - - -
13/03:30am - - - - - S 22 28 12 15 - - -
13/03:00am - - - - - SSW 28 33 15 18 - - -
13/02:30am - - - - - SSW 22 26 12 14 - - -
13/02:00am - - - - - S 15 26 8 14 - - -
13/01:30am - - - - - S 20 28 11 15 - - -
13/01:00am - - - - - SSE 26 39 14 21 - - -
13/12:30am - - - - - SE 26 41 14 22 - - -
13/12:00am - - - - - SE 26 32 14 17 - - -
 
Date/Time
EST
Temp
°C
App
Temp
°C
Dew
Point
Rel
Hum
%
Delta-T
°C
Wind Press
QNH
hPa
Press
MSL
hPa
Rain
since 9 am
mm
Dir
 
Spd
km/h
Gust
km/h
Spd
kts
Gust
kts
12/11:30pm - - - - - SE 28 33 15 18 - - -
12/11:00pm - - - - - SE 28 35 15 19 - - -
12/10:30pm - - - - - SE 30 37 16 20 - - -
12/10:00pm - - - - - SE 26 37 14 20 - - -
12/09:30pm - - - - - SE 24 33 13 18 - - -
12/09:00pm - - - - - SE 28 33 15 18 - - -
12/08:30pm - - - - - ESE 28 35 15 19 - - -
12/08:00pm - - - - - ESE 28 35 15 19 - - -
12/07:30pm - - - - - ESE 30 35 16 19 - - -
12/07:00pm - - - - - ESE 30 39 16 21 - - -
12/06:30pm - - - - - SE 28 37 15 20 - - -
12/06:00pm - - - - - ESE 32 37 17 20 - - -
12/05:30pm - - - - - ESE 32 37 17 20 - - -
12/05:00pm - - - - - SE 28 37 15 20 - - -
12/04:30pm - - - - - ESE 32 39 17 21 - - -
12/04:00pm - - - - - ESE 33 39 18 21 - - -
12/03:30pm - - - - - ESE 32 37 17 20 - - -
12/03:00pm - - - - - ESE 32 35 17 19 - - -
12/02:30pm - - - - - ESE 32 37 17 20 - - -
12/02:00pm - - - - - SE 28 33 15 18 - - -
12/01:30pm - - - - - SE 28 33 15 18 - - -
12/01:00pm - - - - - SE 30 37 16 20 - - -
12/12:30pm - - - - - SE 32 37 17 20 - - -
12/12:00pm - - - - - SE 32 39 17 21 - - -
12/11:30am - - - - - SE 33 44 18 24 - - -
12/11:00am - - - - - SE 35 41 19 22 - - -
12/10:30am - - - - - SE 33 43 18 23 - - -
12/10:00am - - - - - SSE 35 41 19 22 - - -
12/09:30am - - - - - SSE 30 41 16 22 - - -
12/09:00am - - - - - S 28 37 15 20 - - -
12/08:30am - - - - - S 32 41 17 22 - - -
12/08:00am - - - - - S 30 37 16 20 - - -
12/07:30am - - - - - S 28 35 15 19 - - -
12/07:00am - - - - - S 24 32 13 17 - - -
12/06:30am - - - - - S 24 30 13 16 - - -
12/06:00am - - - - - S 24 30 13 16 - - -
12/05:30am - - - - - S 24 33 13 18 - - -
12/05:00am - - - - - S 24 30 13 16 - - -
12/04:30am - - - - - SSW 19 26 10 14 - - -
12/04:00am - - - - - S 28 33 15 18 - - -
12/03:30am - - - - - S 22 32 12 17 - - -
12/03:00am - - - - - SSE 24 32 13 17 - - -
12/02:30am - - - - - S 20 28 11 15 - - -
12/02:00am - - - - - S 20 28 11 15 - - -
12/01:30am - - - - - SSE 26 37 14 20 - - -
12/01:00am - - - - - SSE 32 35 17 19 - - -
12/12:30am - - - - - SE 32 35 17 19 - - -
12/12:00am - - - - - SE 26 33 14 18 - - -
 
Date/Time
EST
Temp
°C
App
Temp
°C
Dew
Point
Rel
Hum
%
Delta-T
°C
Wind Press
QNH
hPa
Press
MSL
hPa
Rain
since 9 am
mm
Dir
 
Spd
km/h
Gust
km/h
Spd
kts
Gust
kts
11/11:30pm - - - - - SE 28 35 15 19 - - -
11/11:00pm - - - - - SE 26 33 14 18 - - -
11/10:30pm - - - - - SE 26 33 14 18 - - -
11/10:00pm - - - - - SE 22 30 12 16 - - -
11/09:30pm - - - - - SE 24 32 13 17 - - -
11/09:00pm - - - - - SE 24 32 13 17 - - -
11/08:30pm - - - - - SE 20 26 11 14 - - -
11/08:00pm - - - - - SE 22 32 12 17 - - -
11/07:30pm - - - - - SE 24 33 13 18 - - -
11/07:00pm - - - - - ESE 30 39 16 21 - - -
11/06:30pm - - - - - ESE 28 33 15 18 - - -
11/06:00pm - - - - - ESE 28 32 15 17 - - -
11/05:30pm - - - - - ESE 24 30 13 16 - - -
11/05:00pm - - - - - ESE 24 32 13 17 - - -
11/04:30pm - - - - - SE 28 33 15 18 - - -
11/04:00pm - - - - - SE 22 32 12 17 - - -
11/03:30pm - - - - - SE 24 32 13 17 - - -
11/03:00pm - - - - - SE 26 30 14 16 - - -
11/02:30pm - - - - - SE 24 30 13 16 - - -
11/02:00pm - - - - - SE 24 30 13 16 - - -
11/01:30pm - - - - - SSE 26 32 14 17 - - -
11/01:00pm - - - - - SSE 26 32 14 17 - - -
11/12:30pm - - - - - SSE 30 33 16 18 - - -
11/12:00pm - - - - - SSE 30 35 16 19 - - -
11/11:30am - - - - - SSE 30 35 16 19 - - -
11/11:00am - - - - - SSE 32 37 17 20 - - -
11/10:30am - - - - - SSE 32 39 17 21 - - -
11/10:00am - - - - - SSE 33 41 18 22 - - -
11/09:30am - - - - - SSE 37 44 20 24 - - -
11/09:00am - - - - - SSE 37 46 20 25 - - -
11/08:30am - - - - - SSE 30 44 16 24 - - -
11/08:00am - - - - - S 24 39 13 21 - - -
11/07:30am - - - - - S 26 33 14 18 - - -
11/07:00am - - - - - S 26 35 14 19 - - -
11/06:30am - - - - - S 33 46 18 25 - - -
11/06:00am - - - - - SSE 37 52 20 28 - - -
11/05:30am - - - - - S 30 39 16 21 - - -
11/05:00am - - - - - S 28 46 15 25 - - -
11/04:30am - - - - - SSE 24 35 13 19 - - -
11/04:28am - - - - - SSE 26 35 14 19 - - -
11/04:00am - - - - - SSE 32 56 17 30 - - -
11/03:59am - - - - - SSE 30 56 16 30 - - -
11/03:58am - - - - - S 28 56 15 30 - - -
11/03:30am - - - - - SSE 35 46 19 25 - - -
11/03:00am - - - - - SSE 41 50 22 27 - - -
11/02:49am - - - - - SSE 28 48 15 26 - - -
11/02:30am - - - - - SE 32 43 17 23 - - -
11/02:00am - - - - - SE 33 41 18 22 - - -
11/01:30am - - - - - SE 39 48 21 26 - - -
11/01:00am - - - - - SE 35 44 19 24 - - -
11/12:30am - - - - - SE 32 37 17 20 - - -
11/12:00am - - - - - SE 30 37 16 20 - - -
 
Date/Time
EST
Temp
°C
App
Temp
°C
Dew
Point
Rel
Hum
%
Delta-T
°C
Wind Press
QNH
hPa
Press
MSL
hPa
Rain
since 9 am
mm
Dir
 
Spd
km/h
Gust
km/h
Spd
kts
Gust
kts
10/11:30pm - - - - - ESE 32 37 17 20 - - -
10/11:00pm - - - - - ESE 35 43 19 23 - - -
10/10:30pm - - - - - ESE 32 37 17 20 - - -
10/10:00pm - - - - - ESE 32 37 17 20 - - -
10/09:30pm - - - - - ESE 33 41 18 22 - - -
10/09:00pm - - - - - ESE 32 41 17 22 - - -
10/08:30pm - - - - - ESE 33 41 18 22 - - -
10/08:00pm - - - - - ESE 32 39 17 21 - - -
10/07:30pm - - - - - ESE 28 33 15 18 - - -
10/07:00pm - - - - - SE 24 32 13 17 - - -
10/06:30pm - - - - - SE 24 30 13 16 - - -
10/06:00pm - - - - - ESE 26 35 14 19 - - -
10/05:30pm - - - - - SE 30 37 16 20 - - -
10/05:00pm - - - - - SE 33 41 18 22 - - -

Other Formats:

Comma delimited format used in spreadsheet applications
http://www.bom.gov.au/fwo/IDQ60801/IDQ60801.99367.axf

JavaScript Object Notation format (JSON) in row-major order
http://www.bom.gov.au/fwo/IDQ60801/IDQ60801.99367.json